Terminal Aerodrome Forecast
Issued by NWS

Home | Current Version | Previous Version | Graphics & Text | Print | Product List | Glossary On
Versions: 1 2 3 4 5 6 7 8 9 10 11 12 13 14 15 16 17 18 19 20 21 22 23 24 25 26 27 28 29 30 31 32 33 34 35
000
FTUS43 KLOT 011600 AAB
TAFORD
TAF AMD
KORD 011609Z 0116/0218 23013G19KT P6SM SCT020 BKN040
      TEMPO 0116/0117 SHRA SCT008 BKN012
     FM020000 24012KT P6SM VCSH SCT030 BKN050
     FM020300 27010KT P6SM BKN050
     FM021000 30008KT P6SM SCT040=

USA.gov is the U.S. government's official web portal to all federal, state and local government web resources and services.